createdAt,value
2022-12-08T00:02:28.446Z,28.38
2022-12-08T00:05:49.561Z,24.43
2022-12-08T00:09:10.967Z,24.80
2022-12-08T00:12:17.714Z,24.42
2022-12-08T00:15:20.139Z,27.65
2022-12-08T00:18:22.897Z,25.33
2022-12-08T00:21:25.354Z,21.07
2022-12-08T00:24:31.479Z,19.38
2022-12-08T00:27:33.982Z,24.05
2022-12-08T00:30:40.112Z,27.88
2022-12-08T00:33:42.605Z,32.75
2022-12-08T00:36:45.502Z,30.10
2022-12-08T00:39:48.187Z,29.55
2022-12-08T00:42:50.626Z,31.27
2022-12-08T00:45:53.156Z,29.63
2022-12-08T00:48:55.631Z,31.95
2022-12-08T00:51:58.097Z,30.10
2022-12-08T00:55:00.701Z,29.30
2022-12-08T00:58:03.172Z,39.92
2022-12-08T01:01:11.004Z,32.53
2022-12-08T01:04:18.483Z,25.23
2022-12-08T01:07:20.947Z,30.90
2022-12-08T01:10:23.580Z,31.10
2022-12-08T01:13:26.003Z,27.52
2022-12-08T01:16:31.201Z,26.33
2022-12-08T01:19:33.847Z,22.00
2022-12-08T01:22:36.267Z,27.23
2022-12-08T01:25:38.657Z,44.17
2022-12-08T01:28:41.826Z,35.03
2022-12-08T01:31:44.235Z,36.03
2022-12-08T01:34:46.823Z,27.60
2022-12-08T01:37:50.195Z,30.67
2022-12-08T01:40:52.600Z,31.77
2022-12-08T01:44:08.299Z,29.17
2022-12-08T01:47:11.719Z,25.00
2022-12-08T01:50:16.120Z,25.95
2022-12-08T01:53:30.805Z,21.80
2022-12-08T01:56:40.621Z,23.88
2022-12-08T01:59:52.389Z,27.13
2022-12-08T02:03:00.852Z,30.20
2022-12-08T02:06:04.008Z,29.08
2022-12-08T02:09:06.802Z,28.30
2022-12-08T02:12:10.325Z,29.17
2022-12-08T02:15:13.019Z,32.15
2022-12-08T02:18:35.513Z,36.88
2022-12-08T02:21:58.660Z,31.10
2022-12-08T02:25:25.365Z,29.63
2022-12-08T02:29:29.709Z,25.33
2022-12-08T02:32:53.646Z,24.88
2022-12-08T02:35:58.925Z,28.00
2022-12-08T02:39:12.009Z,26.05
2022-12-08T02:42:14.327Z,25.20
2022-12-08T02:45:26.872Z,22.42
2022-12-08T02:48:29.962Z,25.00
2022-12-08T02:51:32.435Z,24.60
2022-12-08T02:54:36.510Z,26.92
2022-12-08T02:58:00.600Z,27.67
2022-12-08T03:01:23.121Z,24.00
2022-12-08T03:04:34.633Z,19.73
2022-12-08T03:07:53.995Z,22.25
2022-12-08T03:11:00.065Z,26.75
2022-12-08T03:14:04.387Z,24.33
2022-12-08T03:17:07.219Z,26.15
2022-12-08T03:20:13.251Z,30.65
2022-12-08T03:23:17.628Z,32.88
2022-12-08T03:26:28.871Z,32.83
2022-12-08T03:29:32.545Z,33.37
2022-12-08T03:32:49.461Z,28.58
2022-12-08T03:35:53.120Z,27.60
2022-12-08T03:38:55.663Z,29.52
2022-12-08T03:41:58.939Z,36.15
2022-12-08T03:45:01.282Z,37.10
2022-12-08T03:48:03.775Z,32.72
2022-12-08T03:51:06.287Z,30.30
2022-12-08T03:54:08.746Z,30.77
2022-12-08T03:57:11.233Z,40.92
2022-12-08T04:00:15.928Z,43.93
2022-12-08T04:03:18.434Z,54.85
2022-12-08T04:06:21.761Z,61.78
2022-12-08T04:09:24.194Z,54.90
2022-12-08T04:12:26.575Z,41.53
2022-12-08T04:15:29.081Z,47.87
2022-12-08T04:18:32.304Z,41.42
2022-12-08T04:21:34.717Z,44.92
2022-12-08T04:24:37.139Z,43.80
2022-12-08T04:27:39.630Z,38.15
2022-12-08T04:30:42.242Z,29.00
2022-12-08T04:33:45.067Z,30.60
2022-12-08T04:36:47.449Z,34.10
2022-12-08T04:39:50.849Z,36.03
2022-12-08T04:42:53.260Z,31.75
2022-12-08T04:45:56.028Z,34.33
2022-12-08T04:48:58.851Z,29.70
2022-12-08T04:52:01.297Z,32.97
2022-12-08T04:55:04.467Z,29.40
2022-12-08T04:58:06.980Z,37.75
2022-12-08T05:01:09.559Z,33.23
2022-12-08T05:04:12.032Z,30.55
2022-12-08T05:07:14.420Z,27.25
2022-12-08T05:10:17.107Z,33.85
2022-12-08T05:13:19.565Z,47.67
2022-12-08T05:16:22.065Z,38.17
2022-12-08T05:19:24.766Z,40.17
2022-12-08T05:22:27.179Z,59.38
2022-12-08T05:25:29.695Z,48.08
2022-12-08T05:28:41.157Z,53.88
2022-12-08T05:31:44.607Z,74.60
2022-12-08T05:34:47.070Z,43.72
2022-12-08T05:37:49.583Z,41.60
2022-12-08T05:40:52.037Z,36.70
2022-12-08T05:43:54.501Z,32.17
2022-12-08T05:46:56.939Z,36.53
2022-12-08T05:49:59.351Z,41.38
2022-12-08T05:53:01.820Z,33.67
2022-12-08T05:56:04.395Z,39.33
2022-12-08T05:59:07.633Z,35.17
2022-12-08T06:02:10.352Z,26.43
2022-12-08T06:05:12.939Z,32.25
2022-12-08T06:08:15.585Z,37.42
2022-12-08T06:11:26.667Z,35.67
2022-12-08T06:14:29.258Z,39.30
2022-12-08T06:17:31.701Z,37.27
2022-12-08T06:20:34.784Z,36.47
2022-12-08T06:23:37.906Z,44.78
2022-12-08T06:26:41.497Z,36.40
2022-12-08T06:29:43.931Z,40.92
2022-12-08T06:32:46.373Z,34.93
2022-12-08T06:35:48.821Z,29.63
2022-12-08T06:38:51.258Z,41.90
2022-12-08T06:42:11.916Z,34.88
2022-12-08T06:45:16.712Z,42.45
2022-12-08T06:48:19.460Z,40.97
2022-12-08T06:51:23.481Z,39.63
2022-12-08T06:54:26.629Z,35.72
2022-12-08T06:57:29.145Z,69.68
2022-12-08T07:00:31.600Z,58.47
2022-12-08T07:03:34.149Z,35.97
2022-12-08T07:06:36.920Z,35.75
2022-12-08T07:09:39.480Z,34.05
2022-12-08T07:12:41.975Z,39.25
2022-12-08T07:15:44.661Z,31.88
2022-12-08T07:18:47.116Z,28.97
2022-12-08T07:21:49.820Z,36.10
2022-12-08T07:24:52.284Z,39.33
2022-12-08T07:27:54.823Z,37.42
2022-12-08T07:30:57.314Z,32.30
2022-12-08T07:34:00.536Z,27.50
2022-12-08T07:37:02.969Z,31.13
2022-12-08T07:40:07.596Z,33.33
2022-12-08T07:43:10.244Z,32.75
2022-12-08T07:46:14.661Z,29.48
2022-12-08T07:49:17.300Z,29.43
2022-12-08T07:52:19.852Z,39.05
2022-12-08T07:55:22.292Z,30.42
2022-12-08T07:58:25.777Z,36.63
2022-12-08T08:01:30.759Z,30.40
2022-12-08T08:04:33.417Z,31.63
2022-12-08T08:07:37.242Z,34.45
2022-12-08T08:10:39.833Z,37.20
2022-12-08T08:13:42.253Z,34.63
2022-12-08T08:16:47.456Z,29.50
2022-12-08T08:19:50.104Z,34.77
2022-12-08T08:22:52.659Z,30.55
2022-12-08T08:25:55.065Z,39.20
2022-12-08T08:28:57.635Z,38.92
2022-12-08T08:32:00.285Z,34.13
2022-12-08T08:35:06.242Z,33.03
2022-12-08T08:38:08.808Z,33.08
2022-12-08T08:41:11.645Z,31.40
2022-12-08T08:44:15.058Z,35.22
2022-12-08T08:47:17.487Z,32.58
2022-12-08T08:50:19.876Z,36.27
2022-12-08T08:53:22.939Z,38.20
2022-12-08T08:56:26.104Z,37.50
2022-12-08T08:59:29.042Z,28.48
2022-12-08T09:02:31.541Z,40.72
2022-12-08T09:05:34.169Z,31.90
2022-12-08T09:08:36.553Z,43.65
2022-12-08T09:11:40.714Z,31.15
2022-12-08T09:14:43.201Z,26.73
2022-12-08T09:17:45.686Z,29.23
2022-12-08T09:20:48.126Z,31.93
2022-12-08T09:23:52.869Z,31.30
2022-12-08T09:26:55.295Z,30.45
2022-12-08T09:29:57.993Z,34.03
2022-12-08T09:33:00.654Z,33.72
2022-12-08T09:36:04.043Z,39.60
2022-12-08T09:39:07.248Z,39.05
2022-12-08T09:42:10.450Z,28.73
2022-12-08T09:45:14.860Z,28.10
2022-12-08T09:48:33.408Z,34.45
2022-12-08T09:51:38.766Z,28.63
2022-12-08T09:54:41.339Z,29.08
2022-12-08T09:57:44.828Z,33.85
2022-12-08T10:00:47.632Z,91.78
2022-12-08T10:03:50.198Z,51.38
2022-12-08T10:06:52.557Z,32.67
2022-12-08T10:10:03.707Z,32.85
2022-12-08T10:13:24.481Z,37.25
2022-12-08T10:16:37.089Z,45.17
2022-12-08T10:19:40.938Z,34.20
2022-12-08T10:22:45.096Z,38.23
2022-12-08T10:25:49.946Z,33.28
2022-12-08T10:28:52.688Z,29.85
2022-12-08T10:31:59.991Z,28.80
2022-12-08T10:35:08.431Z,30.80
2022-12-08T10:38:21.645Z,34.70
2022-12-08T10:41:24.966Z,32.53
2022-12-08T10:44:27.492Z,33.47
2022-12-08T10:47:30.640Z,31.27
2022-12-08T10:50:46.434Z,45.25
2022-12-08T10:53:48.915Z,44.00
2022-12-08T10:56:55.905Z,34.13
2022-12-08T10:59:59.070Z,32.03
2022-12-08T11:03:05.340Z,26.05
2022-12-08T11:06:15.824Z,28.63
2022-12-08T11:09:18.548Z,38.93
2022-12-08T11:12:22.516Z,47.58
2022-12-08T11:15:33.290Z,43.92
2022-12-08T11:18:44.656Z,61.92
2022-12-08T11:21:47.817Z,40.17
2022-12-08T11:25:03.674Z,42.60
2022-12-08T11:28:09.886Z,34.72
2022-12-08T11:31:21.150Z,32.83
2022-12-08T11:35:02.063Z,33.38
2022-12-08T11:38:21.536Z,30.30
2022-12-08T11:41:29.054Z,31.53
2022-12-08T11:44:51.608Z,35.30
2022-12-08T11:48:21.787Z,33.53
2022-12-08T11:51:29.751Z,40.53
2022-12-08T11:54:53.469Z,30.25
2022-12-08T11:57:57.927Z,34.03
2022-12-08T12:01:01.498Z,58.53
2022-12-08T12:04:19.899Z,52.53
2022-12-08T12:07:37.772Z,38.28
2022-12-08T12:10:58.332Z,32.80
2022-12-08T12:14:21.493Z,33.13
2022-12-08T12:17:48.399Z,40.53
2022-12-08T12:20:58.370Z,94.65
2022-12-08T12:24:06.682Z,57.58
2022-12-08T12:27:23.767Z,42.40
2022-12-08T12:30:28.168Z,31.47
2022-12-08T12:33:31.472Z,34.15
2022-12-08T12:37:03.272Z,31.55
2022-12-08T12:40:28.171Z,32.35
2022-12-08T12:43:36.336Z,31.50
2022-12-08T12:46:50.888Z,31.20
2022-12-08T12:50:05.778Z,30.92
2022-12-08T12:53:37.533Z,37.33
2022-12-08T12:56:48.502Z,35.85
2022-12-08T12:59:55.826Z,31.90
2022-12-08T13:02:59.163Z,32.30
2022-12-08T13:06:02.423Z,37.15
2022-12-08T13:09:07.291Z,38.20
2022-12-08T13:12:20.268Z,37.83
2022-12-08T13:15:22.799Z,35.65
2022-12-08T13:18:28.742Z,40.73
2022-12-08T13:21:38.854Z,44.22
2022-12-08T13:24:42.274Z,35.00
2022-12-08T13:27:53.124Z,37.17
2022-12-08T13:31:02.963Z,37.20
2022-12-08T13:34:07.275Z,36.83
2022-12-08T13:37:13.710Z,40.90
2022-12-08T13:40:24.400Z,38.35
2022-12-08T13:43:47.280Z,34.47
2022-12-08T13:47:25.073Z,40.05
2022-12-08T13:57:29.992Z,33.75
2022-12-08T14:00:32.874Z,37.03
2022-12-08T14:04:12.904Z,36.17
2022-12-08T14:07:13.003Z,31.30
2022-12-08T14:10:22.598Z,34.17
2022-12-08T14:13:25.032Z,36.72
2022-12-08T14:16:37.653Z,36.33
2022-12-08T14:19:43.497Z,32.17
2022-12-08T14:22:46.728Z,33.80
2022-12-08T14:25:49.165Z,30.58
2022-12-08T14:28:51.734Z,35.22
2022-12-08T14:31:54.189Z,37.70
2022-12-08T14:35:18.870Z,34.47
2022-12-08T14:38:22.885Z,32.60
2022-12-08T14:41:32.416Z,32.63
2022-12-08T14:44:39.085Z,35.75
2022-12-08T14:47:41.691Z,34.65
2022-12-08T14:51:01.897Z,36.53
2022-12-08T14:54:14.244Z,33.57
2022-12-08T14:57:16.893Z,37.40
2022-12-08T15:00:21.074Z,41.20
2022-12-08T15:03:24.748Z,41.67
2022-12-08T15:06:27.222Z,41.17
2022-12-08T15:09:31.096Z,43.27
2022-12-08T15:12:33.573Z,39.40
2022-12-08T15:15:47.552Z,47.72
2022-12-08T15:19:02.476Z,145.60
2022-12-08T15:22:14.054Z,76.30
2022-12-08T15:25:16.536Z,133.17
2022-12-08T15:28:23.984Z,71.10
2022-12-08T15:31:29.128Z,47.25
2022-12-08T15:34:31.680Z,44.03
2022-12-08T15:37:34.128Z,40.05
2022-12-08T15:40:36.542Z,38.23
2022-12-08T15:43:38.893Z,38.10
2022-12-08T15:46:41.307Z,38.35
2022-12-08T15:49:44.099Z,41.45
2022-12-08T15:52:47.485Z,36.53
2022-12-08T15:56:19.089Z,37.53
2022-12-08T15:59:20.934Z,37.92
2022-12-08T16:02:25.241Z,37.35
2022-12-08T16:06:01.739Z,38.10
2022-12-08T16:09:06.150Z,38.30
2022-12-08T16:16:07.917Z,35.03
2022-12-08T16:19:14.240Z,40.20
2022-12-08T16:26:17.089Z,40.05
2022-12-08T16:29:11.062Z,40.23
2022-12-08T16:32:14.826Z,39.50
2022-12-08T16:35:17.476Z,35.65
2022-12-08T16:38:19.925Z,40.55
2022-12-08T16:41:40.721Z,35.55
2022-12-08T16:44:43.168Z,35.27
2022-12-08T16:47:56.585Z,31.42
2022-12-08T16:50:59.062Z,57.40
2022-12-08T16:54:01.468Z,33.58
2022-12-08T16:57:03.914Z,31.70
2022-12-08T17:00:09.126Z,26.23
2022-12-08T17:03:14.754Z,26.52
2022-12-08T17:06:18.828Z,39.85
2022-12-08T17:09:21.387Z,29.75
2022-12-08T17:12:23.883Z,30.85
2022-12-08T17:15:26.345Z,30.27
2022-12-08T17:18:29.095Z,38.00
2022-12-08T17:21:32.146Z,29.80
2022-12-08T17:24:34.612Z,28.35
2022-12-08T17:27:37.988Z,29.30
2022-12-08T17:30:40.391Z,25.03
2022-12-08T17:33:43.149Z,32.28
2022-12-08T17:36:45.648Z,29.60
2022-12-08T17:39:48.374Z,26.38
2022-12-08T17:42:50.734Z,28.33
2022-12-08T17:45:53.509Z,28.20
2022-12-08T17:48:56.290Z,19.67
2022-12-08T17:52:01.512Z,24.17
2022-12-08T17:55:04.200Z,26.50
2022-12-08T17:58:07.748Z,24.63
2022-12-08T18:01:11.289Z,23.40
2022-12-08T18:04:13.875Z,22.48
2022-12-08T18:07:16.341Z,19.77
2022-12-08T18:10:19.366Z,25.85
2022-12-08T18:13:22.021Z,25.50
2022-12-08T18:16:26.176Z,23.90
2022-12-08T18:19:28.956Z,24.27
2022-12-08T18:22:32.609Z,20.90
2022-12-08T18:25:35.906Z,24.13
2022-12-08T18:28:38.922Z,22.02
2022-12-08T18:31:41.352Z,21.87
2022-12-08T18:34:43.857Z,18.50
2022-12-08T18:37:47.076Z,21.83
2022-12-08T18:40:49.793Z,24.70
2022-12-08T18:43:53.484Z,23.98
2022-12-08T18:46:56.198Z,28.13
2022-12-08T18:50:00.200Z,28.73
2022-12-08T18:53:02.849Z,29.35
2022-12-08T18:56:06.247Z,26.15
2022-12-08T18:59:12.006Z,26.83
2022-12-08T19:02:14.982Z,28.07
2022-12-08T19:05:17.647Z,29.75
2022-12-08T19:08:20.726Z,24.48
2022-12-08T19:11:25.894Z,27.00
2022-12-08T19:14:30.441Z,23.23
2022-12-08T19:17:33.232Z,20.73
2022-12-08T19:20:36.226Z,21.38
2022-12-08T19:23:40.151Z,23.48
2022-12-08T19:26:43.273Z,21.88
2022-12-08T19:29:45.952Z,25.50
2022-12-08T19:32:50.124Z,28.63
2022-12-08T19:35:53.814Z,25.20
2022-12-08T19:39:15.081Z,20.73
2022-12-08T19:42:38.208Z,19.25
2022-12-08T19:45:40.980Z,18.90
2022-12-08T19:48:44.215Z,21.17
2022-12-08T19:51:47.011Z,21.92
2022-12-08T19:54:49.616Z,21.13
2022-12-08T19:57:52.664Z,20.00
2022-12-08T20:00:55.581Z,22.17
2022-12-08T20:03:58.228Z,23.77
2022-12-08T20:07:02.133Z,24.77
2022-12-08T20:10:07.960Z,21.75
2022-12-08T20:13:29.990Z,22.08
2022-12-08T20:16:32.837Z,25.13
2022-12-08T20:19:35.618Z,22.47
2022-12-08T20:22:38.736Z,22.67
2022-12-08T20:25:43.140Z,22.05
2022-12-08T20:28:45.963Z,21.15
2022-12-08T20:31:48.891Z,24.75
2022-12-08T20:34:52.031Z,23.03
2022-12-08T20:37:54.698Z,21.80
2022-12-08T20:40:58.516Z,24.55
2022-12-08T20:44:01.635Z,23.13
2022-12-08T20:47:04.378Z,20.30
2022-12-08T20:50:08.596Z,24.90
2022-12-08T20:53:11.578Z,32.80
2022-12-08T20:56:19.236Z,31.10
2022-12-08T20:59:21.978Z,28.08
2022-12-08T21:02:28.012Z,24.17
2022-12-08T21:05:31.044Z,25.27
2022-12-08T21:08:33.674Z,29.63
2022-12-08T21:11:36.546Z,33.88
2022-12-08T21:14:40.107Z,25.65
2022-12-08T21:17:42.709Z,20.92
2022-12-08T21:20:45.500Z,25.20
2022-12-08T21:23:48.092Z,23.17
2022-12-08T21:26:50.730Z,21.27
2022-12-08T21:29:53.246Z,35.35
2022-12-08T21:32:55.967Z,30.55
2022-12-08T21:36:03.183Z,26.30
2022-12-08T21:39:11.305Z,26.40
2022-12-08T21:42:34.220Z,24.80
2022-12-08T21:45:37.189Z,24.08
2022-12-08T21:48:39.761Z,27.52
2022-12-08T21:51:43.186Z,24.17
2022-12-08T21:54:45.810Z,24.00
2022-12-08T21:57:48.247Z,23.60
2022-12-08T22:00:50.742Z,24.33
2022-12-08T22:03:53.462Z,27.25
2022-12-08T22:06:56.132Z,19.93
2022-12-08T22:09:58.528Z,21.77
2022-12-08T22:13:00.912Z,23.23
2022-12-08T22:16:08.091Z,22.45
2022-12-08T22:19:10.695Z,21.95
2022-12-08T22:22:16.237Z,21.97
2022-12-08T22:25:18.785Z,24.13
2022-12-08T22:28:21.163Z,25.10
2022-12-08T22:31:23.735Z,24.65
2022-12-08T22:34:26.250Z,27.02
2022-12-08T22:37:28.604Z,25.40
2022-12-08T22:40:31.141Z,23.95
2022-12-08T22:43:34.035Z,27.20
2022-12-08T22:46:36.512Z,23.00
2022-12-08T22:49:38.973Z,30.05
2022-12-08T22:52:41.687Z,27.57
2022-12-08T22:55:44.752Z,28.52
2022-12-08T22:58:48.642Z,29.33
2022-12-08T23:01:51.053Z,28.50
2022-12-08T23:04:56.970Z,26.80
2022-12-08T23:07:59.950Z,26.80
2022-12-08T23:11:02.533Z,36.97
2022-12-08T23:14:04.952Z,34.78
2022-12-08T23:17:08.213Z,42.72
2022-12-08T23:20:11.834Z,32.63
2022-12-08T23:23:14.447Z,28.23
2022-12-08T23:26:19.019Z,34.88
2022-12-08T23:29:21.786Z,33.33
2022-12-08T23:32:24.746Z,35.67
2022-12-08T23:35:27.474Z,32.28
2022-12-08T23:38:30.321Z,37.10
2022-12-08T23:41:33.198Z,33.10
2022-12-08T23:44:35.772Z,34.28
2022-12-08T23:47:38.266Z,37.05
2022-12-08T23:50:40.640Z,35.42
2022-12-08T23:53:44.074Z,33.73
2022-12-08T23:56:46.773Z,36.55
2022-12-08T23:59:49.344Z,35.75
